Time;durP1;ratioP1;P1;durP2;ratioP2;P2;SDS_P1;SDS_P2;PMS_P1;PMS_P2;Temp;Humidity;BMP_temperature;BMP_pressure;BME280_temperature;BME280_humidity;BME280_pressure;Samples;Min_cycle;Max_cycle;Signal;HPM_P1;HPM_P2
2023/04/29 00:01:06;;;;;;;10.10;6.97;;;;;;;8.86;47.61;95030.81;5029307;28;20428;-74
2023/04/29 00:03:31;;;;;;;12.40;7.50;;;;;;;8.87;47.77;95026.09;5027381;28;20033;-73
2023/04/29 00:06:00;;;;;;;13.95;7.40;;;;;;;8.86;47.44;95025.34;5027127;28;20064;-74
2023/04/29 00:08:25;;;;;;;11.43;6.90;;;;;;;8.84;47.26;95021.50;5025363;28;20518;-73
2023/04/29 00:10:51;;;;;;;11.45;6.43;;;;;;;8.83;47.19;95034.41;5025966;28;20045;-73
2023/04/29 00:13:17;;;;;;;10.02;6.38;;;;;;;8.82;47.06;95027.38;5025386;28;20041;-74
2023/04/29 00:15:42;;;;;;;9.30;6.80;;;;;;;8.78;47.25;95029.44;5027234;28;20211;-73
2023/04/29 00:18:09;;;;;;;13.13;6.53;;;;;;;8.76;47.26;95034.53;5027832;28;20365;-74
2023/04/29 00:20:35;;;;;;;11.70;6.25;;;;;;;8.73;47.34;95036.19;5025714;28;20520;-73
2023/04/29 00:23:01;;;;;;;12.35;6.10;;;;;;;8.68;47.01;95028.44;5025130;28;20029;-74
2023/04/29 00:25:26;;;;;;;10.07;6.20;;;;;;;8.71;46.86;95038.53;5027016;28;20017;-74
2023/04/29 00:27:52;;;;;;;10.25;6.35;;;;;;;8.70;47.17;95034.25;5026908;28;20017;-74
2023/04/29 00:30:17;;;;;;;11.38;6.30;;;;;;;8.69;47.54;95035.47;5025092;28;20026;-73
2023/04/29 00:32:43;;;;;;;13.80;7.47;;;;;;;8.66;47.40;95028.09;5028216;28;20396;-74
2023/04/29 00:35:09;;;;;;;10.30;6.50;;;;;;;8.63;47.58;95028.94;5026293;28;20079;-73
2023/04/29 00:37:34;;;;;;;11.30;5.80;;;;;;;8.59;47.55;95030.97;5025295;28;20087;-73
2023/04/29 00:40:00;;;;;;;9.07;5.78;;;;;;;8.58;47.66;95034.91;5024646;28;20031;-74
2023/04/29 00:42:26;;;;;;;9.07;5.78;;;;;;;8.55;47.49;95033.03;5026383;28;20025;-73
2023/04/29 00:44:51;;;;;;;9.57;5.28;;;;;;;8.52;47.73;95029.13;5026390;28;20025;-75
2023/04/29 00:47:16;;;;;;;9.43;5.22;;;;;;;8.46;47.85;95022.59;5029328;28;20068;-73
2023/04/29 00:49:42;;;;;;;10.38;5.35;;;;;;;8.46;48.38;95022.59;5025149;28;20029;-73
2023/04/29 00:52:10;;;;;;;12.82;5.95;;;;;;;8.42;48.37;95023.84;5026120;28;20018;-74
2023/04/29 00:54:36;;;;;;;10.25;5.97;;;;;;;8.39;48.31;95020.00;5024964;28;20095;-74
2023/04/29 00:57:03;;;;;;;11.18;6.07;;;;;;;8.35;48.52;95019.25;5024836;28;20029;-75
2023/04/29 00:59:31;;;;;;;8.52;5.93;;;;;;;8.32;48.50;95020.13;5026042;28;20057;-74
2023/04/29 01:02:00;;;;;;;11.88;6.18;;;;;;;8.29;48.94;95010.00;5025586;28;20531;-73
2023/04/29 01:04:25;;;;;;;10.40;6.35;;;;;;;8.25;48.99;95012.00;5024670;28;20025;-75
2023/04/29 01:07:06;;;;;;;12.38;6.28;;;;;;;8.20;49.00;95005.09;5025976;28;20026;-74
2023/04/29 01:09:37;;;;;;;11.30;6.30;;;;;;;8.16;49.38;94998.88;5024647;28;20563;-74
2023/04/29 01:12:05;;;;;;;9.25;6.07;;;;;;;8.08;49.37;94994.72;5026176;28;20083;-73
2023/04/29 01:14:32;;;;;;;9.52;6.03;;;;;;;8.05;49.63;95000.28;5025171;28;20112;-74
2023/04/29 01:17:05;;;;;;;9.48;5.90;;;;;;;8.02;49.95;94999.13;5007963;28;20438;-73
2023/04/29 01:19:47;;;;;;;11.05;6.63;;;;;;;7.96;50.02;94998.06;5024454;28;20084;-74
2023/04/29 01:22:20;;;;;;;9.63;6.20;;;;;;;7.91;49.99;94984.88;5025500;28;20036;-74
2023/04/29 01:24:47;;;;;;;9.32;6.07;;;;;;;7.88;50.23;94999.41;5025738;28;20017;-74
2023/04/29 01:27:12;;;;;;;9.05;6.30;;;;;;;7.86;50.14;94990.84;5024249;28;20114;-73
2023/04/29 01:30:00;;;;;;;9.00;6.57;;;;;;;7.83;50.32;94992.44;5025591;28;20095;-73
2023/04/29 01:32:32;;;;;;;11.77;6.32;;;;;;;7.79;50.34;94999.94;5024067;28;20087;-73
2023/04/29 01:35:05;;;;;;;9.13;6.90;;;;;;;7.77;50.40;94996.06;5023773;28;20416;-73
2023/04/29 01:37:57;;;;;;;13.25;6.70;;;;;;;7.76;50.58;94995.31;5031195;28;20416;-75
2023/04/29 01:40:33;;;;;;;9.13;6.07;;;;;;;7.72;50.65;94991.84;5025594;28;20093;-74
2023/04/29 01:43:03;;;;;;;9.45;6.00;;;;;;;7.73;50.64;94988.69;5024549;28;20025;-73
2023/04/29 01:45:30;;;;;;;10.07;6.32;;;;;;;7.70;50.78;94992.25;5023812;28;20029;-73
2023/04/29 01:47:56;;;;;;;8.85;7.03;;;;;;;7.67;51.11;94984.88;5023580;28;20424;-74
2023/04/29 01:50:22;;;;;;;8.88;6.32;;;;;;;7.66;51.43;94990.78;5023914;28;20033;-74
2023/04/29 01:52:47;;;;;;;11.55;6.45;;;;;;;7.66;51.49;94988.81;5024808;28;20040;-74
2023/04/29 01:55:13;;;;;;;10.48;6.55;;;;;;;7.64;51.29;94991.19;5025318;28;20712;-74
2023/04/29 01:57:38;;;;;;;13.10;6.95;;;;;;;7.62;51.33;94990.06;5025674;28;20108;-74
2023/04/29 02:00:04;;;;;;;11.25;6.78;;;;;;;7.59;51.35;94999.88;5024646;28;20516;-74
2023/04/29 02:02:30;;;;;;;10.13;6.18;;;;;;;7.54;51.04;94994.09;5024724;28;20029;-74
2023/04/29 02:04:55;;;;;;;9.80;6.43;;;;;;;7.54;51.05;95005.81;5023384;28;20095;-74
2023/04/29 02:07:21;;;;;;;14.63;7.00;;;;;;;7.47;51.07;94997.72;5025077;28;20143;-75
2023/04/29 02:09:46;;;;;;;15.63;7.85;;;;;;;7.44;51.23;95002.06;5024333;28;20037;-74
2023/04/29 02:12:12;;;;;;;12.38;8.23;;;;;;;7.45;51.31;94997.34;5024837;28;20037;-74
2023/04/29 02:14:37;;;;;;;13.07;6.88;;;;;;;7.40;51.29;95001.34;5025408;28;20067;-74
2023/04/29 02:17:03;;;;;;;9.57;6.55;;;;;;;7.37;51.58;94991.22;5024309;28;20397;-74
2023/04/29 02:19:28;;;;;;;12.93;7.10;;;;;;;7.37;51.74;94993.19;5022881;28;20026;-74
2023/04/29 02:21:53;;;;;;;11.73;6.72;;;;;;;7.35;51.92;94995.59;5024997;28;20033;-74
2023/04/29 02:24:19;;;;;;;11.95;7.18;;;;;;;7.36;52.22;94991.66;5027275;28;20032;-74
2023/04/29 02:26:44;;;;;;;12.07;7.32;;;;;;;7.33;52.24;94995.19;5023361;28;20096;-74
2023/04/29 02:29:09;;;;;;;10.18;7.22;;;;;;;7.30;52.26;94985.88;5022920;28;20037;-74
2023/04/29 02:31:35;;;;;;;16.73;8.02;;;;;;;7.31;52.32;94997.59;5024461;28;20108;-73
2023/04/29 02:34:00;;;;;;;15.27;8.05;;;;;;;7.29;51.77;94999.97;5024559;28;20029;-73
2023/04/29 02:36:26;;;;;;;14.57;7.88;;;;;;;7.24;51.58;94990.28;5030656;28;20104;-75
2023/04/29 02:38:54;;;;;;;14.55;7.60;;;;;;;7.19;51.46;94993.47;5023636;28;20030;-73
2023/04/29 02:41:19;;;;;;;11.98;7.38;;;;;;;7.13;51.42;94989.66;5023770;28;20105;-72
2023/04/29 02:43:45;;;;;;;10.77;7.82;;;;;;;7.14;51.50;94988.47;5025574;28;20121;-73
2023/04/29 02:46:11;;;;;;;11.15;7.82;;;;;;;7.15;51.58;94993.50;5023198;28;20116;-73
2023/04/29 02:48:36;;;;;;;13.27;7.60;;;;;;;7.13;51.65;94997.84;5024332;28;20029;-73
2023/04/29 02:51:02;;;;;;;14.50;8.55;;;;;;;7.08;51.66;94992.84;5024230;28;20040;-73
2023/04/29 02:53:27;;;;;;;15.93;8.43;;;;;;;7.06;51.58;94998.72;5023037;28;20581;-73
2023/04/29 02:55:52;;;;;;;12.63;7.82;;;;;;;7.04;51.45;95003.06;5022692;28;20115;-73
2023/04/29 02:58:18;;;;;;;13.73;8.75;;;;;;;6.99;51.84;95011.72;5024060;28;20044;-72
2023/04/29 03:00:43;;;;;;;15.85;8.90;;;;;;;6.98;51.74;95013.66;5024271;28;20129;-72
2023/04/29 03:03:09;;;;;;;11.90;8.52;;;;;;;6.98;51.79;95008.22;5023601;28;20091;-74
2023/04/29 03:05:35;;;;;;;12.00;8.23;;;;;;;6.93;51.93;95003.19;5023120;28;20500;-74
2023/04/29 03:08:00;;;;;;;13.13;9.35;;;;;;;6.90;52.12;95007.53;5024074;28;20103;-74
2023/04/29 03:10:26;;;;;;;14.48;9.00;;;;;;;6.89;52.04;95003.25;5024113;28;20029;-75
2023/04/29 03:12:51;;;;;;;13.45;8.77;;;;;;;6.84;52.36;95002.94;5024106;28;20037;-75
2023/04/29 03:15:16;;;;;;;13.13;8.88;;;;;;;6.81;52.35;95015.44;5023787;28;20088;-72
2023/04/29 03:17:44;;;;;;;11.88;8.00;;;;;;;6.78;52.49;95012.78;5024118;28;20036;-75
2023/04/29 03:20:10;;;;;;;14.88;8.20;;;;;;;6.72;52.79;95014.44;5024603;28;20033;-75
2023/04/29 03:22:35;;;;;;;11.48;7.50;;;;;;;6.71;52.76;95015.59;5024708;28;20033;-74
2023/04/29 03:25:01;;;;;;;12.05;8.02;;;;;;;6.68;52.92;95024.63;5023610;28;20102;-72
2023/04/29 03:27:26;;;;;;;14.77;7.50;;;;;;;6.64;52.86;95032.84;5022838;28;20033;-74
2023/04/29 03:29:52;;;;;;;14.80;7.68;;;;;;;6.59;52.88;95031.34;5025957;28;20383;-74
2023/04/29 03:32:17;;;;;;;10.63;7.93;;;;;;;6.60;53.10;95032.91;5026119;28;20025;-73
2023/04/29 03:34:43;;;;;;;15.57;7.65;;;;;;;6.60;53.03;95040.31;5028059;28;20036;-73
2023/04/29 03:37:08;;;;;;;11.85;6.97;;;;;;;6.58;53.04;95040.72;5027222;28;20029;-74
2023/04/29 03:39:33;;;;;;;11.98;7.53;;;;;;;6.54;53.14;95041.97;5027844;28;20403;-74
2023/04/29 03:41:59;;;;;;;15.55;7.95;;;;;;;6.52;53.54;95034.16;5027313;28;20113;-74
2023/04/29 03:44:25;;;;;;;10.88;7.10;;;;;;;6.53;53.47;95043.91;5027628;28;20403;-74
2023/04/29 03:46:50;;;;;;;12.43;7.03;;;;;;;6.49;53.65;95026.78;5029774;28;20025;-73
2023/04/29 03:49:16;;;;;;;10.25;6.93;;;;;;;6.48;53.82;95032.63;5027740;28;20056;-73
2023/04/29 03:51:44;;;;;;;13.45;7.63;;;;;;;6.46;53.66;95030.31;5009726;28;20029;-74
2023/04/29 03:54:10;;;;;;;11.32;6.95;;;;;;;6.51;53.88;95015.44;5026014;28;20083;-74
2023/04/29 03:56:35;;;;;;;10.38;7.30;;;;;;;6.54;53.71;95028.31;5026170;28;20048;-73
2023/04/29 03:59:01;;;;;;;13.35;7.30;;;;;;;6.59;53.60;95030.56;5025744;28;20411;-73
2023/04/29 04:01:26;;;;;;;10.93;6.60;;;;;;;6.62;53.35;95024.28;5027157;28;20038;-73
2023/04/29 04:03:52;;;;;;;10.40;6.85;;;;;;;6.65;53.37;95029.72;5027020;28;20029;-73
2023/04/29 04:06:17;;;;;;;15.38;8.75;;;;;;;6.69;53.23;95037.09;5025579;28;21059;-73
2023/04/29 04:08:43;;;;;;;13.40;7.60;;;;;;;6.70;53.49;95041.38;5025608;28;20036;-73
2023/04/29 04:11:08;;;;;;;16.95;7.70;;;;;;;6.77;53.58;95044.03;5025642;28;20476;-73
2023/04/29 04:13:34;;;;;;;11.82;7.90;;;;;;;6.79;53.37;95045.16;5027236;28;20025;-73
2023/04/29 04:16:00;;;;;;;15.38;7.78;;;;;;;6.82;52.81;95054.47;5026756;28;20024;-73
2023/04/29 04:18:25;;;;;;;16.73;8.77;;;;;;;6.85;53.05;95054.44;5026835;28;20033;-73
2023/04/29 04:20:50;;;;;;;18.10;7.57;;;;;;;6.91;52.98;95046.56;5026654;28;20076;-73
2023/04/29 04:23:16;;;;;;;14.82;7.57;;;;;;;6.94;52.83;95040.28;5027708;28;20057;-73
2023/04/29 04:25:48;;;;;;;10.75;7.30;;;;;;;6.99;53.24;95036.31;5028589;28;20467;-73
2023/04/29 04:28:14;;;;;;;12.20;7.57;;;;;;;7.05;53.17;95042.88;5024891;28;20029;-75
2023/04/29 04:30:40;;;;;;;19.60;7.90;;;;;;;7.12;53.06;95038.09;5025494;28;20427;-73
2023/04/29 04:33:06;;;;;;;14.07;7.47;;;;;;;7.22;53.24;95043.81;5026496;28;20516;-75
2023/04/29 04:35:31;;;;;;;9.48;7.07;;;;;;;7.28;53.37;95048.41;5026533;28;20034;-74
2023/04/29 04:37:57;;;;;;;14.48;8.18;;;;;;;7.35;53.08;95047.53;5025217;28;20021;-74
2023/04/29 04:40:23;;;;;;;12.55;7.95;;;;;;;7.43;52.44;95048.97;5025250;28;20029;-74
2023/04/29 04:42:48;;;;;;;14.35;8.68;;;;;;;7.48;52.60;95051.25;5026239;28;20037;-74
2023/04/29 04:45:13;;;;;;;15.38;8.75;;;;;;;7.55;52.04;95053.09;5025505;28;20453;-74
2023/04/29 04:47:40;;;;;;;18.48;9.45;;;;;;;7.61;52.02;95054.94;5026325;28;20472;-74
2023/04/29 04:50:07;;;;;;;13.35;8.82;;;;;;;7.66;51.60;95051.75;5026761;28;20440;-75
2023/04/29 04:52:32;;;;;;;12.35;8.85;;;;;;;7.72;51.25;95047.34;5027283;28;20087;-73
2023/04/29 04:54:58;;;;;;;18.17;9.35;;;;;;;7.80;51.52;95036.28;5024783;28;20183;-72
2023/04/29 04:57:23;;;;;;;18.08;8.52;;;;;;;7.87;50.68;95033.44;5026255;28;20551;-73
2023/04/29 04:59:48;;;;;;;15.32;8.82;;;;;;;7.94;50.29;95030.56;5025467;28;20037;-73
2023/04/29 05:02:14;;;;;;;15.45;8.27;;;;;;;7.96;50.10;95034.44;5026154;28;20033;-73
2023/04/29 05:04:39;;;;;;;12.07;8.02;;;;;;;8.10;49.34;95024.44;5024527;28;20033;-73
2023/04/29 05:07:05;;;;;;;12.05;6.90;;;;;;;8.16;49.33;95037.22;5026148;28;20033;-73
2023/04/29 05:09:30;;;;;;;12.88;7.60;;;;;;;8.24;49.03;95032.38;5025770;28;20143;-73
2023/04/29 05:11:58;;;;;;;13.50;8.48;;;;;;;8.32;48.88;95019.34;5025954;28;20100;-73
2023/04/29 05:14:24;;;;;;;16.15;9.52;;;;;;;8.35;49.04;95021.22;5024552;28;20084;-72
2023/04/29 05:16:51;;;;;;;13.95;9.45;;;;;;;8.43;49.06;95012.50;5025134;28;20025;-74
2023/04/29 05:19:17;;;;;;;18.48;9.93;;;;;;;8.56;48.75;95017.34;5026990;28;20112;-75
2023/04/29 05:21:42;;;;;;;15.38;9.80;;;;;;;8.61;48.55;95014.91;5025690;28;20109;-73
2023/04/29 05:24:08;;;;;;;20.70;10.60;;;;;;;8.68;48.76;95012.00;5025929;28;20152;-74
2023/04/29 05:26:33;;;;;;;18.55;10.05;;;;;;;8.77;48.35;95009.47;5025885;28;20492;-74
2023/04/29 05:28:59;;;;;;;17.35;9.40;;;;;;;8.81;48.44;95008.63;5024339;28;20029;-74
2023/04/29 05:31:25;;;;;;;14.60;10.23;;;;;;;8.89;48.26;95013.53;5026086;28;20080;-74
2023/04/29 05:33:50;;;;;;;23.02;10.85;;;;;;;8.96;48.36;95012.63;5026090;28;20018;-72
2023/04/29 05:36:15;;;;;;;19.92;11.73;;;;;;;9.03;48.27;95017.94;5026162;28;20585;-73
2023/04/29 05:38:44;;;;;;;21.40;12.00;;;;;;;9.11;48.09;95013.81;5025102;28;20029;-73
2023/04/29 05:41:09;;;;;;;27.45;13.77;;;;;;;9.21;47.72;95018.31;5026203;28;20421;-73
2023/04/29 05:43:34;;;;;;;16.17;12.27;;;;;;;9.28;47.48;95012.66;5023625;28;20025;-73
2023/04/29 05:46:00;;;;;;;27.58;12.93;;;;;;;9.36;47.70;95027.00;5025696;28;20045;-73
2023/04/29 05:48:25;;;;;;;22.33;13.52;;;;;;;9.43;47.22;95023.31;5023960;28;20112;-73
2023/04/29 05:50:51;;;;;;;21.23;12.85;;;;;;;9.45;47.27;95018.94;5025216;28;20030;-74
2023/04/29 05:53:16;;;;;;;20.33;11.98;;;;;;;9.54;47.11;95027.38;5025085;28;20029;-74
2023/04/29 05:55:43;;;;;;;19.67;12.00;;;;;;;9.62;46.87;95016.22;5022855;28;20028;-74
2023/04/29 05:58:09;;;;;;;21.05;12.27;;;;;;;9.68;46.54;95020.00;5025470;28;20060;-74
2023/04/29 06:00:35;;;;;;;22.10;9.40;;;;;;;9.62;46.51;95022.47;5024508;28;20458;-74
2023/04/29 06:03:00;;;;;;;17.15;8.63;;;;;;;9.67;46.63;95023.94;5025213;28;20037;-74
2023/04/29 06:05:26;;;;;;;18.08;8.80;;;;;;;9.79;46.50;95026.00;5023721;28;20120;-75
2023/04/29 06:07:51;;;;;;;9.07;6.95;;;;;;;9.88;46.18;95017.16;5024633;28;20493;-73
2023/04/29 06:10:17;;;;;;;16.63;7.22;;;;;;;9.98;45.88;95013.38;5025036;28;20136;-74
2023/04/29 06:12:42;;;;;;;11.38;7.57;;;;;;;10.03;45.68;95013.63;5008297;28;20520;-74
2023/04/29 06:15:08;;;;;;;15.20;8.23;;;;;;;9.97;45.61;95020.06;5026773;28;20060;-74
2023/04/29 06:17:33;;;;;;;12.48;7.28;;;;;;;10.02;45.82;95022.28;5024592;28;20034;-74
2023/04/29 06:19:59;;;;;;;15.15;7.75;;;;;;;10.06;45.60;95020.22;5024927;28;20113;-73
2023/04/29 06:22:24;;;;;;;11.63;7.20;;;;;;;10.14;45.40;95020.81;5024454;28;20025;-73
2023/04/29 06:24:50;;;;;;;10.85;7.68;;;;;;;10.21;44.98;95026.91;5024688;28;20020;-75
2023/04/29 06:27:15;;;;;;;12.23;7.45;;;;;;;10.26;44.79;95022.88;4990696;28;20029;-72
2023/04/29 06:29:41;;;;;;;14.88;6.80;;;;;;;10.26;44.89;95020.13;5023007;28;20025;-72
2023/04/29 06:32:07;;;;;;;15.65;9.20;;;;;;;10.32;45.06;95019.19;5024622;28;20033;-73
2023/04/29 06:34:32;;;;;;;15.45;7.97;;;;;;;10.33;45.35;95015.25;5024610;28;20101;-74
2023/04/29 06:36:58;;;;;;;16.20;7.65;;;;;;;10.39;45.36;95007.25;5006762;28;20045;-73
2023/04/29 06:39:23;;;;;;;15.85;8.10;;;;;;;10.50;44.70;95006.94;5024459;28;20088;-73
2023/04/29 06:41:49;;;;;;;13.43;7.93;;;;;;;10.51;44.54;95006.50;5006670;28;20033;-74
2023/04/29 06:44:17;;;;;;;16.27;8.15;;;;;;;10.57;44.77;95004.00;5025645;28;20021;-79
2023/04/29 06:46:43;;;;;;;11.77;7.63;;;;;;;10.52;45.20;95005.28;5024127;28;20407;-74
2023/04/29 06:49:08;;;;;;;12.35;8.70;;;;;;;10.59;45.07;95007.84;5031021;28;20040;-75
2023/04/29 06:51:38;;;;;;;11.93;6.70;;;;;;;10.61;44.43;95016.44;5023771;28;20128;-74
2023/04/29 06:54:03;;;;;;;10.68;6.60;;;;;;;10.69;44.45;95010.75;5023956;28;20112;-74
2023/04/29 06:56:29;;;;;;;11.23;6.75;;;;;;;10.81;44.32;95005.28;5023015;28;20116;-74
2023/04/29 06:58:54;;;;;;;13.88;7.25;;;;;;;10.94;43.85;95004.53;5022795;28;20112;-73
2023/04/29 07:01:20;;;;;;;13.48;6.93;;;;;;;11.04;43.96;95008.94;5023500;28;20049;-74
2023/04/29 07:03:45;;;;;;;9.75;6.13;;;;;;;11.14;43.88;94999.63;5026505;28;20029;-74
2023/04/29 07:06:11;;;;;;;10.95;6.65;;;;;;;11.19;43.76;94988.06;5024920;28;20097;-75
2023/04/29 07:08:36;;;;;;;11.55;6.63;;;;;;;11.31;43.21;94992.03;5030347;28;20025;-75
2023/04/29 07:11:03;;;;;;;9.70;6.18;;;;;;;11.31;42.93;94990.03;5027994;28;20041;-74
2023/04/29 07:13:28;;;;;;;10.00;6.43;;;;;;;11.26;43.08;94993.34;5028392;28;20025;-74
2023/04/29 07:15:54;;;;;;;11.15;6.32;;;;;;;11.32;42.78;94997.09;5026300;28;20022;-74
2023/04/29 07:18:19;;;;;;;12.00;6.53;;;;;;;11.51;42.45;94991.78;5027971;28;20041;-75
2023/04/29 07:20:46;;;;;;;11.68;7.63;;;;;;;11.56;42.41;94991.25;5028210;28;20511;-74
2023/04/29 07:23:12;;;;;;;10.65;7.05;;;;;;;11.68;42.39;94990.47;5028084;28;20104;-74
2023/04/29 07:25:37;;;;;;;15.93;7.80;;;;;;;11.71;42.02;94989.59;5027896;28;20105;-74
2023/04/29 07:28:03;;;;;;;12.70;7.32;;;;;;;11.76;41.89;94999.28;5027664;28;20049;-74
2023/04/29 07:30:29;;;;;;;11.02;7.25;;;;;;;12.05;41.53;94993.63;5027729;28;20056;-77
2023/04/29 07:32:54;;;;;;;10.75;7.40;;;;;;;12.18;41.76;94983.34;5026125;28;20459;-73
2023/04/29 07:35:20;;;;;;;11.52;7.50;;;;;;;12.34;41.20;94994.19;5027758;28;20022;-74
2023/04/29 07:37:47;;;;;;;12.50;7.18;;;;;;;12.49;41.00;94984.19;5027903;28;20037;-73
2023/04/29 07:40:12;;;;;;;14.73;7.00;;;;;;;12.76;40.80;94993.88;5027778;28;20060;-74
2023/04/29 07:42:38;;;;;;;10.82;6.82;;;;;;;13.00;39.94;94986.69;5026243;28;20065;-73
2023/04/29 07:45:04;;;;;;;10.68;6.40;;;;;;;13.37;39.64;94986.91;5026481;28;20541;-73
2023/04/29 07:47:29;;;;;;;11.02;6.90;;;;;;;13.65;38.74;94995.28;5026200;28;20537;-75
2023/04/29 07:49:56;;;;;;;13.27;8.05;;;;;;;13.88;38.05;94986.47;5027626;28;20029;-74
2023/04/29 07:52:21;;;;;;;10.38;7.05;;;;;;;14.12;37.38;94988.66;5027326;28;20400;-73
2023/04/29 07:54:47;;;;;;;9.98;6.93;;;;;;;14.40;36.80;94984.69;5027499;28;20034;-74
2023/04/29 07:57:12;;;;;;;9.30;6.82;;;;;;;14.74;36.44;94969.78;5027183;28;20063;-73
2023/04/29 07:59:38;;;;;;;13.35;6.63;;;;;;;15.04;35.20;94968.03;5027454;28;20022;-74
2023/04/29 08:02:03;;;;;;;11.88;6.50;;;;;;;14.84;33.98;94970.53;5029565;28;20124;-75
2023/04/29 08:04:29;;;;;;;10.60;6.95;;;;;;;15.13;34.02;94970.00;5026318;28;20106;-73
2023/04/29 08:06:54;;;;;;;9.43;5.88;;;;;;;15.44;33.38;94966.22;5027613;28;20458;-73
2023/04/29 08:09:20;;;;;;;10.60;6.20;;;;;;;15.69;32.74;94963.06;5026576;28;20028;-74
2023/04/29 08:11:45;;;;;;;9.05;5.45;;;;;;;15.96;32.10;94961.38;5025940;28;20549;-74
2023/04/29 08:14:11;;;;;;;8.73;5.65;;;;;;;16.14;31.68;94958.47;5025792;28;20025;-75
2023/04/29 08:16:36;;;;;;;11.68;6.20;;;;;;;16.22;31.92;94956.88;5025941;28;20033;-75
2023/04/29 08:19:02;;;;;;;10.27;5.65;;;;;;;16.45;31.84;94944.22;5025155;28;20083;-75
2023/04/29 08:21:27;;;;;;;9.82;6.25;;;;;;;16.71;31.92;94953.59;5024755;28;20025;-74
2023/04/29 08:23:54;;;;;;;11.68;7.28;;;;;;;16.91;31.46;94950.13;5026057;28;20033;-74
2023/04/29 08:26:21;;;;;;;10.95;7.75;;;;;;;17.15;31.56;94949.31;5024211;28;20164;-74
2023/04/29 08:28:47;;;;;;;8.35;5.82;;;;;;;17.32;30.96;94953.13;5024563;28;20056;-74
2023/04/29 08:31:19;;;;;;;8.45;5.93;;;;;;;17.61;30.64;94955.09;5024068;28;20450;-73
2023/04/29 08:33:45;;;;;;;10.02;5.82;;;;;;;17.75;30.25;94947.97;5024465;28;20040;-74
2023/04/29 08:36:10;;;;;;;12.23;5.90;;;;;;;17.98;29.81;94946.28;5025196;28;20034;-73
2023/04/29 08:38:36;;;;;;;10.60;6.32;;;;;;;18.04;29.50;94947.88;5025607;28;20033;-72
2023/04/29 08:41:01;;;;;;;10.77;6.50;;;;;;;17.97;29.37;94947.53;5025557;28;20030;-74
2023/04/29 08:43:27;;;;;;;10.63;6.43;;;;;;;17.97;29.78;94950.31;5024991;28;20029;-74
2023/04/29 08:45:53;;;;;;;8.63;6.15;;;;;;;18.04;29.07;94944.34;5024100;28;20037;-74
2023/04/29 08:48:18;;;;;;;12.13;6.22;;;;;;;18.47;28.73;94939.06;5023808;28;20597;-73
2023/04/29 08:50:44;;;;;;;14.15;7.65;;;;;;;18.47;28.73;94936.28;5023814;28;20053;-74
2023/04/29 08:53:11;;;;;;;9.45;5.97;;;;;;;18.76;28.70;94943.72;5006999;28;20033;-75
2023/04/29 08:55:47;;;;;;;10.18;5.88;;;;;;;18.81;28.11;94943.00;5030725;28;20060;-75
2023/04/29 08:58:14;;;;;;;10.75;5.30;;;;;;;18.92;27.92;94942.31;5023950;28;20155;-75
2023/04/29 09:00:41;;;;;;;13.45;5.97;;;;;;;19.19;27.58;94939.03;4984962;28;1129670;-75
2023/04/29 09:03:23;;;;;;;13.82;6.60;;;;;;;19.28;27.61;94935.34;5026352;28;20061;-76
2023/04/29 09:05:52;;;;;;;8.55;5.10;;;;;;;19.40;27.54;94930.59;5024746;28;20053;-74
2023/04/29 09:08:18;;;;;;;13.70;7.63;;;;;;;19.31;26.89;94928.75;5024598;28;20071;-75
2023/04/29 09:10:43;;;;;;;9.30;6.03;;;;;;;19.16;27.49;94928.13;5026057;28;20045;-76
2023/04/29 09:13:30;;;;;;;8.77;5.53;;;;;;;19.09;27.14;94932.09;5028223;28;20399;-74
2023/04/29 09:15:56;;;;;;;8.38;5.90;;;;;;;19.07;27.04;94932.59;5025925;28;20033;-74
2023/04/29 09:18:49;;;;;;;10.05;6.97;;;;;;;19.26;27.55;94923.91;5024168;28;20152;-76
2023/04/29 09:21:17;;;;;;;9.88;5.55;;;;;;;19.67;27.68;94924.50;5023386;28;20033;-75
2023/04/29 09:23:43;;;;;;;10.13;6.00;;;;;;;19.81;27.55;94915.19;5025883;28;20018;-76
2023/04/29 09:26:09;;;;;;;8.70;4.65;;;;;;;20.02;27.21;94917.88;5026002;28;20083;-74
2023/04/29 09:28:34;;;;;;;7.25;4.68;;;;;;;20.23;26.77;94910.84;5023814;28;20025;-76
2023/04/29 09:31:05;;;;;;;6.65;5.32;;;;;;;20.51;26.28;94918.59;5024075;28;20030;-76
2023/04/29 09:33:31;;;;;;;8.20;5.05;;;;;;;20.82;25.69;94912.84;5025561;28;20484;-74
2023/04/29 09:35:56;;;;;;;8.93;4.97;;;;;;;21.04;25.73;94902.94;5025591;28;20364;-74
2023/04/29 09:38:22;;;;;;;9.38;4.95;;;;;;;21.39;25.41;94905.28;5025438;28;20025;-75
2023/04/29 09:40:47;;;;;;;9.43;5.70;;;;;;;21.71;25.47;94888.97;5024495;28;20538;-74
2023/04/29 09:43:14;;;;;;;7.55;4.28;;;;;;;21.92;25.04;94903.44;5025596;28;20053;-76
2023/04/29 09:45:46;;;;;;;10.18;4.97;;;;;;;21.62;25.04;94894.84;5024261;28;20034;-75
2023/04/29 09:48:12;;;;;;;12.05;4.78;;;;;;;21.63;24.55;94901.97;5026023;28;20127;-73
2023/04/29 09:50:39;;;;;;;9.73;4.50;;;;;;;21.71;24.72;94895.34;5027553;28;20025;-72
2023/04/29 09:53:08;;;;;;;7.28;4.57;;;;;;;21.48;24.47;94893.84;5024170;28;20140;-73
2023/04/29 09:55:35;;;;;;;6.47;4.10;;;;;;;21.52;24.51;94888.75;5025089;28;20041;-73
2023/04/29 09:58:00;;;;;;;11.38;4.85;;;;;;;21.42;24.39;94879.88;5024076;28;20021;-73
2023/04/29 10:00:31;;;;;;;6.95;4.60;;;;;;;21.51;24.03;94878.09;5024933;28;20046;-74
2023/04/29 10:02:58;;;;;;;9.77;4.93;;;;;;;21.30;24.11;94866.41;5025321;28;20117;-74
2023/04/29 10:05:27;;;;;;;9.70;4.18;;;;;;;21.14;24.02;94865.88;5025287;28;20106;-76
2023/04/29 10:07:54;;;;;;;8.93;4.40;;;;;;;21.14;24.38;94865.09;5024218;28;20029;-76
2023/04/29 10:10:20;;;;;;;6.53;3.83;;;;;;;21.12;24.43;94867.66;5007189;28;20041;-76
2023/04/29 10:12:46;;;;;;;12.93;6.57;;;;;;;20.95;23.87;94865.63;5023452;28;20033;-75
2023/04/29 10:15:21;;;;;;;8.63;4.28;;;;;;;20.84;24.59;94854.44;5024937;28;20022;-78
2023/04/29 10:18:05;;;;;;;7.97;3.30;;;;;;;20.79;23.18;94851.63;5029810;28;20017;-77
2023/04/29 10:20:31;;;;;;;5.03;3.15;;;;;;;20.80;23.78;94853.91;5023965;28;20026;-78
2023/04/29 10:22:58;;;;;;;5.75;3.30;;;;;;;20.72;23.73;94858.47;5024140;28;20038;-75
2023/04/29 10:25:26;;;;;;;6.40;3.15;;;;;;;20.78;23.63;94855.69;5025419;28;20626;-74
2023/04/29 10:27:52;;;;;;;7.85;4.10;;;;;;;20.71;23.45;94856.19;5006901;28;20029;-73
2023/04/29 10:30:19;;;;;;;9.30;4.70;;;;;;;20.59;24.05;94850.59;5023550;28;20569;-74
2023/04/29 10:32:46;;;;;;;9.15;4.35;;;;;;;20.42;24.88;94844.19;5023234;28;20033;-73
2023/04/29 10:35:17;;;;;;;7.50;4.28;;;;;;;20.51;24.99;94849.53;5023492;28;20433;-76
2023/04/29 10:37:44;;;;;;;7.60;3.75;;;;;;;20.31;24.89;94850.50;5024644;28;20047;-76
2023/04/29 10:40:17;;;;;;;8.98;4.28;;;;;;;20.39;24.57;94851.53;5023553;28;20025;-74
2023/04/29 10:42:48;;;;;;;7.47;4.03;;;;;;;20.19;24.11;94851.72;5024538;28;20518;-72
2023/04/29 10:45:22;;;;;;;10.93;4.90;;;;;;;20.06;24.25;94843.03;5026554;28;20055;-74
2023/04/29 10:48:07;;;;;;;5.15;3.50;;;;;;;20.12;25.31;94850.16;5024554;28;20046;-76
2023/04/29 10:50:46;;;;;;;6.18;3.63;;;;;;;20.03;25.74;94844.06;5024641;28;20143;-76
2023/04/29 10:53:13;;;;;;;7.85;3.63;;;;;;;20.14;25.46;94838.50;5024716;28;20060;-74
2023/04/29 10:55:38;;;;;;;6.28;3.30;;;;;;;20.21;25.35;94835.22;5023094;28;20018;-77
2023/04/29 10:58:04;;;;;;;7.47;3.83;;;;;;;19.95;25.40;94831.81;5023102;28;20029;-76
2023/04/29 11:00:32;;;;;;;7.40;4.32;;;;;;;19.91;25.14;94832.09;5006431;28;20046;-77
2023/04/29 11:02:59;;;;;;;4.75;3.13;;;;;;;19.72;24.60;94828.19;5024206;28;20033;-77
2023/04/29 11:05:35;;;;;;;7.70;3.33;;;;;;;19.80;23.90;94830.00;5023562;28;20025;-76
2023/04/29 11:08:25;;;;;;;5.40;3.15;;;;;;;19.79;22.48;94820.13;5024649;28;20104;-77
2023/04/29 11:11:00;;;;;;;5.88;2.90;;;;;;;19.61;22.22;94828.88;5022898;28;20564;-80
2023/04/29 11:13:30;;;;;;;7.50;3.17;;;;;;;19.55;21.69;94828.06;5006619;28;20033;-78
2023/04/29 11:16:06;;;;;;;9.38;4.80;;;;;;;19.38;22.95;94819.59;5022734;28;20025;-75
2023/04/29 11:18:33;;;;;;;6.43;3.55;;;;;;;19.34;23.44;94822.63;5023125;28;20124;-78
2023/04/29 11:21:05;;;;;;;10.20;4.78;;;;;;;19.29;22.69;94823.34;5024407;28;20037;-78
2023/04/29 11:23:33;;;;;;;7.10;4.30;;;;;;;19.18;23.00;94823.28;5023777;28;20036;-78
2023/04/29 11:25:58;;;;;;;6.63;4.18;;;;;;;19.12;22.84;94819.69;5023048;28;20026;-77
2023/04/29 11:28:26;;;;;;;9.75;4.82;;;;;;;19.09;23.31;94818.63;5022896;28;20113;-76
2023/04/29 11:30:52;;;;;;;4.72;2.88;;;;;;;19.10;23.15;94822.97;5022673;28;20033;-78